Time;durP1;ratioP1;P1;durP2;ratioP2;P2;SDS_P1;SDS_P2;PMS_P1;PMS_P2;Temp;Humidity;BMP_temperature;BMP_pressure;BME280_temperature;BME280_humidity;BME280_pressure;Samples;Min_cycle;Max_cycle;Signal;HPM_P1;HPM_P2
2022/12/05 00:01:43;;;;;;;;;;;;;;;2.34;98.90;99162.78;10214181;23;20366;-73
2022/12/05 00:05:45;;;;;;;;;;;;;;;2.37;99.36;99173.09;10218038;23;19963;-73
2022/12/05 00:09:46;;;;;;;;;;;;;;;2.31;98.77;99170.34;10195949;23;20281;-73
2022/12/05 00:13:48;;;;;;;;;;;;;;;2.33;99.12;99177.25;10220389;23;20013;-73
2022/12/05 00:17:49;;;;;;;;;;;;;;;2.34;99.20;99176.44;10187901;23;19924;-73
2022/12/05 00:21:51;;;;;;;;;;;;;;;2.39;99.58;99176.56;10196565;23;19924;-73
2022/12/05 00:25:52;;;;;;;;;;;;;;;2.37;98.82;99173.09;10195527;23;20010;-73
2022/12/05 00:29:53;;;;;;;;;;;;;;;2.35;98.69;99165.38;10195942;23;20348;-73
2022/12/05 00:33:55;;;;;;;;;;;;;;;2.34;98.96;99171.31;10144115;23;19936;-73
2022/12/05 00:37:56;;;;;;;;;;;;;;;2.38;98.80;99179.94;10170177;23;19967;-73
2022/12/05 00:41:58;;;;;;;;;;;;;;;2.38;98.60;99174.81;10196332;23;19963;-73
2022/12/05 00:46:03;;;;;;;;;;;;;;;2.40;99.14;99168.03;10186499;23;19920;-73
2022/12/05 00:50:04;;;;;;;;;;;;;;;2.40;99.10;99157.78;10219897;23;19979;-73
2022/12/05 00:54:07;;;;;;;;;;;;;;;2.41;99.08;99168.06;10195639;23;20436;-73
2022/12/05 00:58:09;;;;;;;;;;;;;;;2.36;99.11;99174.78;10193957;23;19925;-73
2022/12/05 01:02:10;;;;;;;;;;;;;;;2.34;98.72;99173.88;10213513;23;20287;-73
2022/12/05 01:06:13;;;;;;;;;;;;;;;2.31;98.56;99165.22;10192704;23;20015;-73
2022/12/05 01:10:14;;;;;;;;;;;;;;;2.37;98.77;99180.78;10219666;23;19928;-73
2022/12/05 01:14:17;;;;;;;;;;;;;;;2.40;98.28;99183.41;10193390;23;19931;-73
2022/12/05 01:18:20;;;;;;;;;;;;;;;2.40;98.95;99181.72;10212819;23;19979;-73
2022/12/05 01:22:21;;;;;;;;;;;;;;;2.40;98.64;99189.41;10194873;23;19928;-73
2022/12/05 01:26:22;;;;;;;;;;;;;;;2.43;98.67;99194.59;10219462;23;20383;-73
2022/12/05 01:30:24;;;;;;;;;;;;;;;2.43;99.17;99189.47;10188921;23;20557;-73
2022/12/05 01:34:25;;;;;;;;;;;;;;;2.43;99.16;99196.28;10193604;23;19924;-73
2022/12/05 01:38:27;;;;;;;;;;;;;;;2.42;99.12;99167.25;10170090;23;19955;-74
2022/12/05 01:42:28;;;;;;;;;;;;;;;2.46;99.42;99168.19;10220833;23;20050;-73
2022/12/05 01:46:31;;;;;;;;;;;;;;;2.49;99.43;99180.19;10168677;23;19924;-74
2022/12/05 01:50:33;;;;;;;;;;;;;;;2.47;99.23;99171.59;10194570;23;19928;-73
2022/12/05 01:54:36;;;;;;;;;;;;;;;2.41;99.57;99168.06;10193816;23;19960;-73
2022/12/05 01:58:39;;;;;;;;;;;;;;;2.43;99.26;99165.53;10221850;23;19982;-73
2022/12/05 02:02:42;;;;;;;;;;;;;;;2.40;99.39;99161.22;10210303;23;19999;-74
2022/12/05 02:06:43;;;;;;;;;;;;;;;2.34;98.70;99168.75;10191613;23;20591;-74
2022/12/05 02:10:49;;;;;;;;;;;;;;;2.36;98.93;99190.16;10221557;23;19928;-73
2022/12/05 02:15:09;;;;;;;;;;;;;;;2.36;98.78;99192.72;10192675;23;19924;-73
2022/12/05 02:19:23;;;;;;;;;;;;;;;2.33;99.21;99184.06;10193199;23;20007;-73
2022/12/05 02:23:24;;;;;;;;;;;;;;;2.37;99.55;99188.47;10221014;23;19939;-73
2022/12/05 02:27:44;;;;;;;;;;;;;;;2.36;99.57;99196.97;10221600;23;19924;-73
2022/12/05 02:31:46;;;;;;;;;;;;;;;2.33;99.33;99208.00;10213936;23;20327;-73
2022/12/05 02:35:58;;;;;;;;;;;;;;;2.35;99.70;99215.75;10222853;23;19932;-74
2022/12/05 02:40:04;;;;;;;;;;;;;;;2.36;100.00;99200.41;10198740;23;19986;-73
2022/12/05 02:44:05;;;;;;;;;;;;;;;2.40;99.80;99189.41;10198037;23;19936;-74
2022/12/05 02:48:07;;;;;;;;;;;;;;;2.46;99.96;99193.81;10214198;23;20274;-74
2022/12/05 02:52:11;;;;;;;;;;;;;;;2.51;99.86;99178.53;10197674;23;19996;-74
2022/12/05 02:56:13;;;;;;;;;;;;;;;2.56;100.00;99192.34;10197979;23;19959;-73
2022/12/05 03:00:14;;;;;;;;;;;;;;;2.52;99.59;99198.22;10165929;23;19971;-73
2022/12/05 03:04:18;;;;;;;;;;;;;;;2.54;99.87;99207.69;10201526;23;20247;-74
2022/12/05 03:08:22;;;;;;;;;;;;;;;2.53;99.56;99202.53;10227262;23;19924;-73
2022/12/05 03:12:23;;;;;;;;;;;;;;;2.55;100.00;99195.75;10177717;23;19928;-74
2022/12/05 03:16:30;;;;;;;;;;;;;;;2.57;100.00;99188.94;10168886;23;20456;-74
2022/12/05 03:20:33;;;;;;;;;;;;;;;2.61;100.00;99204.44;10202686;23;20296;-74
2022/12/05 03:24:36;;;;;;;;;;;;;;;2.62;99.96;99213.84;10201718;23;19928;-73
2022/12/05 03:28:51;;;;;;;;;;;;;;;2.60;100.00;99222.34;10202342;23;19924;-74
2022/12/05 03:33:02;;;;;;;;;;;;;;;2.63;100.00;99230.97;10219378;23;20320;-74
2022/12/05 03:37:09;;;;;;;;;;;;;;;2.64;100.00;99226.69;10225079;23;19924;-74
2022/12/05 03:41:19;;;;;;;;;;;;;;;2.62;99.93;99225.78;10251227;23;19942;-74
2022/12/05 03:45:25;;;;;;;;;;;;;;;2.65;100.00;99234.41;10243362;23;20365;-74
2022/12/05 03:49:31;;;;;;;;;;;;;;;2.65;99.66;99218.19;10252033;23;19986;-73
2022/12/05 03:53:38;;;;;;;;;;;;;;;2.68;100.00;99216.53;10276714;23;20005;-74
2022/12/05 03:57:43;;;;;;;;;;;;;;;2.73;100.00;99224.38;10250748;23;19924;-74
2022/12/05 04:01:46;;;;;;;;;;;;;;;2.76;100.00;99221.88;10242588;23;20002;-74
2022/12/05 04:05:53;;;;;;;;;;;;;;;2.79;99.82;99224.50;10272314;23;20181;-73
2022/12/05 04:09:58;;;;;;;;;;;;;;;2.83;100.00;99221.19;10246095;23;19981;-74
2022/12/05 04:14:05;;;;;;;;;;;;;;;2.87;99.76;99219.53;10245515;23;19924;-74
2022/12/05 04:18:07;;;;;;;;;;;;;;;2.90;99.73;99230.75;10262724;23;19935;-74
2022/12/05 04:22:08;;;;;;;;;;;;;;;2.94;99.68;99221.44;10245426;23;19985;-74
2022/12/05 04:26:20;;;;;;;;;;;;;;;2.93;99.69;99217.16;10245959;23;19920;-74
2022/12/05 04:30:23;;;;;;;;;;;;;;;2.94;99.80;99217.19;10265054;23;20216;-74
2022/12/05 04:34:27;;;;;;;;;;;;;;;2.96;99.76;99223.22;10203726;23;19939;-74
2022/12/05 04:38:31;;;;;;;;;;;;;;;2.99;99.80;99227.53;10196098;23;19994;-74
2022/12/05 04:42:33;;;;;;;;;;;;;;;3.01;99.92;99229.28;10222524;23;19974;-73
2022/12/05 04:46:36;;;;;;;;;;;;;;;2.98;99.63;99231.78;10166885;23;20331;-74
2022/12/05 04:50:39;;;;;;;;;;;;;;;2.97;100.00;99250.56;10222484;23;20487;-74
2022/12/05 04:54:49;;;;;;;;;;;;;;;2.97;100.00;99242.88;10221249;23;20698;-74
2022/12/05 04:58:50;;;;;;;;;;;;;;;2.98;99.91;99241.19;10222910;23;19924;-74
2022/12/05 05:02:59;;;;;;;;;;;;;;;2.96;100.00;99241.16;10197325;23;19931;-74
2022/12/05 05:07:08;;;;;;;;;;;;;;;2.97;100.00;99245.44;10170062;23;19935;-74
2022/12/05 05:11:15;;;;;;;;;;;;;;;2.98;100.00;99239.50;10196117;23;19924;-74
2022/12/05 05:15:16;;;;;;;;;;;;;;;3.03;100.00;99257.53;10170255;23;20035;-74
2022/12/05 05:19:17;;;;;;;;;;;;;;;3.02;100.00;99259.25;10222082;23;20362;-74
2022/12/05 05:23:18;;;;;;;;;;;;;;;3.06;100.00;99259.34;10221499;23;19931;-74
2022/12/05 05:27:20;;;;;;;;;;;;;;;3.04;100.00;99259.28;10170467;23;19931;-74
2022/12/05 05:31:23;;;;;;;;;;;;;;;3.01;100.00;99262.63;10171914;23;20315;-74
2022/12/05 05:35:25;;;;;;;;;;;;;;;3.02;100.00;99256.69;10173851;23;20075;-74
2022/12/05 05:39:28;;;;;;;;;;;;;;;3.02;100.00;99264.38;10220523;23;19924;-74
2022/12/05 05:43:29;;;;;;;;;;;;;;;3.08;100.00;99271.38;10195163;23;19978;-74
2022/12/05 05:47:30;;;;;;;;;;;;;;;3.11;100.00;99268.88;10221477;23;19963;-74
2022/12/05 05:51:32;;;;;;;;;;;;;;;3.11;100.00;99286.81;10221150;23;20192;-74
2022/12/05 05:55:33;;;;;;;;;;;;;;;3.12;100.00;99292.81;10221640;23;20360;-74
2022/12/05 05:59:34;;;;;;;;;;;;;;;3.10;100.00;99294.47;10221182;23;19924;-74
2022/12/05 06:03:36;;;;;;;;;;;;;;;3.12;100.00;99295.38;10219994;23;19991;-74
2022/12/05 06:07:38;;;;;;;;;;;;;;;3.12;100.00;99301.38;10223330;23;20290;-74
2022/12/05 06:11:40;;;;;;;;;;;;;;;3.13;100.00;99308.25;10223236;23;19966;-74
2022/12/05 06:15:41;;;;;;;;;;;;;;;3.15;100.00;99318.53;10224220;23;19934;-74
2022/12/05 06:19:42;;;;;;;;;;;;;;;3.12;100.00;99324.47;10222720;23;19924;-74
2022/12/05 06:23:44;;;;;;;;;;;;;;;3.12;100.00;99328.72;10222866;23;20011;-74
2022/12/05 06:27:45;;;;;;;;;;;;;;;3.08;100.00;99330.34;10221082;23;20026;-74
2022/12/05 06:31:47;;;;;;;;;;;;;;;3.10;100.00;99338.09;10223374;23;19959;-74
2022/12/05 06:35:48;;;;;;;;;;;;;;;3.15;100.00;99342.50;10221746;23;19924;-74
2022/12/05 06:39:50;;;;;;;;;;;;;;;3.15;100.00;99342.50;10221125;23;19935;-74
2022/12/05 06:43:55;;;;;;;;;;;;;;;3.21;100.00;99334.06;10223660;23;19971;-74
2022/12/05 06:48:02;;;;;;;;;;;;;;;3.24;100.00;99331.59;10199158;23;20251;-74
2022/12/05 06:52:03;;;;;;;;;;;;;;;3.27;100.00;99341.94;10222829;23;19928;-74
2022/12/05 06:56:07;;;;;;;;;;;;;;;3.30;100.00;99336.84;10197256;23;19935;-74
2022/12/05 07:04:29;;;;;;;;;;;;;;;3.36;100.00;99346.38;10222291;23;20294;-74
2022/12/05 07:08:31;;;;;;;;;;;;;;;3.39;100.00;99360.16;10197292;23;19955;-74
2022/12/05 07:12:32;;;;;;;;;;;;;;;3.43;100.00;99363.69;10223399;23;19929;-74
2022/12/05 07:16:34;;;;;;;;;;;;;;;3.42;100.00;99369.66;10222459;23;19955;-74
2022/12/05 07:20:35;;;;;;;;;;;;;;;3.38;100.00;99371.25;10198594;23;20530;-74
2022/12/05 07:24:57;;;;;;;;;;;;;;;3.40;100.00;99389.25;10221778;23;20485;-74
2022/12/05 07:28:58;;;;;;;;;;;;;;;3.45;100.00;99379.97;10222095;23;19924;-74
2022/12/05 07:33:00;;;;;;;;;;;;;;;3.44;100.00;99381.69;10198135;23;20003;-75
2022/12/05 07:37:04;;;;;;;;;;;;;;;3.47;100.00;99386.03;10220698;23;20011;-74
2022/12/05 07:41:06;;;;;;;;;;;;;;;3.51;100.00;99388.69;10223719;23;20608;-75
2022/12/05 07:45:13;;;;;;;;;;;;;;;3.52;100.00;99384.41;10224015;23;19991;-74
2022/12/05 07:49:15;;;;;;;;;;;;;;;3.53;100.00;99392.16;10225420;23;19924;-74
2022/12/05 07:53:16;;;;;;;;;;;;;;;3.57;100.00;99386.25;10221888;23;20296;-74
2022/12/05 07:57:17;;;;;;;;;;;;;;;3.60;100.00;99393.19;10197141;23;20354;-75
2022/12/05 08:01:23;;;;;;;;;;;;;;;3.65;100.00;99391.59;10197871;23;19924;-74
2022/12/05 08:05:24;;;;;;;;;;;;;;;3.66;100.00;99384.75;10221141;23;19928;-74
2022/12/05 08:09:26;;;;;;;;;;;;;;;3.72;100.00;99385.75;10247117;23;19928;-74
2022/12/05 08:13:28;;;;;;;;;;;;;;;3.77;100.00;99384.16;10223243;23;19970;-74
2022/12/05 08:17:31;;;;;;;;;;;;;;;3.80;100.00;99394.50;10219006;23;19924;-74
2022/12/05 08:21:33;;;;;;;;;;;;;;;3.85;100.00;99398.03;10222438;23;19990;-75
2022/12/05 08:25:34;;;;;;;;;;;;;;;3.88;100.00;99394.66;10221014;23;19924;-75
2022/12/05 08:29:38;;;;;;;;;;;;;;;3.90;100.00;99393.00;10221722;23;19956;-75
2022/12/05 08:33:40;;;;;;;;;;;;;;;3.96;100.00;99402.56;10221158;23;19929;-75
2022/12/05 08:37:42;;;;;;;;;;;;;;;4.03;100.00;99401.84;10221599;23;19966;-75
2022/12/05 08:41:44;;;;;;;;;;;;;;;4.09;100.00;99413.09;10198274;23;19947;-75
2022/12/05 08:45:51;;;;;;;;;;;;;;;4.15;100.00;99412.41;10222423;23;19924;-75
2022/12/05 08:49:53;;;;;;;;;;;;;;;4.19;100.00;99420.19;10197357;23;20511;-74
2022/12/05 08:53:55;;;;;;;;;;;;;;;4.22;100.00;99434.81;10196207;23;20023;-74
2022/12/05 08:57:56;;;;;;;;;;;;;;;4.23;100.00;99428.81;10196052;23;19929;-74
2022/12/05 09:02:01;;;;;;;;;;;;;;;4.32;100.00;99436.75;10172534;23;20283;-75
2022/12/05 09:06:21;;;;;;;;;;;;;;;4.39;100.00;99432.59;10194631;23;20003;-74
2022/12/05 09:10:24;;;;;;;;;;;;;;;4.46;100.00;99431.88;10197012;23;20460;-74
2022/12/05 09:14:31;;;;;;;;;;;;;;;4.45;100.00;99437.84;10170838;23;20014;-74
2022/12/05 09:18:34;;;;;;;;;;;;;;;4.49;100.00;99447.38;10169694;23;20292;-74
2022/12/05 09:22:36;;;;;;;;;;;;;;;4.50;100.00;99444.84;10219184;23;19951;-74
2022/12/05 09:26:39;;;;;;;;;;;;;;;4.48;100.00;99453.34;10193531;23;19990;-74
2022/12/05 09:30:44;;;;;;;;;;;;;;;4.49;100.00;99452.53;10219884;23;20019;-74
2022/12/05 09:34:46;;;;;;;;;;;;;;;4.47;100.00;99455.03;10191429;23;20019;-74
2022/12/05 09:38:47;;;;;;;;;;;;;;;4.49;100.00;99463.69;10220111;23;19963;-74
2022/12/05 09:42:56;;;;;;;;;;;;;;;4.56;100.00;99469.81;10193959;23;19932;-75
2022/12/05 09:47:14;;;;;;;;;;;;;;;4.58;100.00;99473.28;10196377;23;19999;-75
2022/12/05 09:51:16;;;;;;;;;;;;;;;4.60;100.00;99469.03;10195728;23;19920;-74
2022/12/05 09:55:40;;;;;;;;;;;;;;;4.63;100.00;99473.34;10197390;23;19924;-74
2022/12/05 09:59:42;;;;;;;;;;;;;;;4.63;100.00;99478.50;10170336;23;19935;-74
2022/12/05 10:04:23;;;;;;;;;;;;;;;4.62;100.00;99479.34;10222214;23;20192;-74
2022/12/05 10:08:41;;;;;;;;;;;;;;;4.68;100.00;99475.22;9997339;23;19926;-74
2022/12/05 10:13:01;;;;;;;;;;;;;;;4.70;100.00;99480.38;10022376;23;20203;-74
2022/12/05 10:17:22;;;;;;;;;;;;;;;4.74;100.00;99477.91;10021437;23;19932;-74
2022/12/05 10:21:36;;;;;;;;;;;;;;;4.79;100.00;99476.28;9997151;23;20377;-74
2022/12/05 10:25:39;;;;;;;;;;;;;;;4.89;99.97;99471.31;9995930;23;20623;-74
2022/12/05 10:29:46;;;;;;;;;;;;;;;4.93;99.25;99480.84;9997505;23;20042;-74
2022/12/05 10:33:50;;;;;;;;;;;;;;;4.99;99.33;99474.09;10013750;23;19925;-74
2022/12/05 10:37:53;;;;;;;;;;;;;;;5.05;98.72;99476.78;10154273;23;19920;-73
2022/12/05 10:41:55;;;;;;;;;;;;;;;5.00;97.56;99465.53;10194829;23;19924;-74
2022/12/05 10:45:57;;;;;;;;;;;;;;;5.06;97.65;99470.81;10194676;23;19956;-74
2022/12/05 10:50:01;;;;;;;;;;;;;;;5.08;97.67;99479.41;10217970;23;19966;-74
2022/12/05 10:54:14;;;;;;;;;;;;;;;5.06;96.82;99482.81;10194836;23;19927;-74
2022/12/05 10:58:17;;;;;;;;;;;;;;;5.08;95.89;99482.00;10222108;23;19924;-73
2022/12/05 11:02:30;;;;;;;;;;;;;;;5.09;96.07;99480.28;10221636;23;19925;-74
2022/12/05 11:06:31;;;;;;;;;;;;;;;5.08;95.95;99478.56;10222909;23;19924;-73
2022/12/05 11:10:35;;;;;;;;;;;;;;;5.02;95.64;99483.56;10222308;23;20019;-73
2022/12/05 11:14:36;;;;;;;;;;;;;;;4.99;95.40;99476.66;10197202;23;20011;-74
2022/12/05 11:18:40;;;;;;;;;;;;;;;4.97;95.02;99485.19;10173681;23;20023;-74
2022/12/05 11:22:42;;;;;;;;;;;;;;;4.97;94.52;99486.06;10196554;23;20313;-74
2022/12/05 11:26:49;;;;;;;;;;;;;;;4.91;93.80;99482.50;10222054;23;19924;-73
2022/12/05 11:30:59;;;;;;;;;;;;;;;4.90;93.41;99488.50;10172673;23;19935;-74
2022/12/05 11:35:17;;;;;;;;;;;;;;;4.85;93.16;99476.41;10171172;23;20418;-74
2022/12/05 11:39:18;;;;;;;;;;;;;;;4.83;93.28;99469.47;10172660;23;19924;-74
2022/12/05 11:43:22;;;;;;;;;;;;;;;4.84;93.10;99463.50;10196269;23;19928;-74
2022/12/05 11:47:27;;;;;;;;;;;;;;;4.84;92.56;99468.63;10196315;23;19963;-74
2022/12/05 11:51:36;;;;;;;;;;;;;;;4.82;92.48;99463.47;10221932;23;20003;-73
2022/12/05 11:55:42;;;;;;;;;;;;;;;4.83;93.05;99465.19;10222016;23;20027;-74
2022/12/05 12:00:01;;;;;;;;;;;;;;;4.82;92.60;99475.47;10196865;23;20567;-73
2022/12/05 12:04:25;;;;;;;;;;;;;;;4.83;92.87;99469.47;10195474;23;19935;-73
2022/12/05 12:08:28;;;;;;;;;;;;;;;4.84;92.37;99473.78;10171219;23;20255;-74
2022/12/05 12:12:34;;;;;;;;;;;;;;;4.79;92.26;99467.69;10222559;23;20006;-73
2022/12/05 12:16:47;;;;;;;;;;;;;;;4.82;92.15;99466.03;10171581;23;20513;-74
2022/12/05 12:21:00;;;;;;;;;;;;;;;4.87;92.18;99463.56;10195896;23;19983;-74
2022/12/05 12:25:12;;;;;;;;;;;;;;;4.88;91.38;99472.16;10194972;23;20148;-74
2022/12/05 12:29:32;;;;;;;;;;;;;;;4.95;91.41;99466.28;10196831;23;19928;-74
2022/12/05 12:33:34;;;;;;;;;;;;;;;5.01;91.44;99469.84;10222065;23;19974;-74
2022/12/05 12:37:48;;;;;;;;;;;;;;;5.05;90.89;99471.66;10221077;23;19975;-74
2022/12/05 12:41:50;;;;;;;;;;;;;;;5.12;91.28;99478.63;10194781;23;20532;-74
2022/12/05 12:45:54;;;;;;;;;;;;;;;5.09;90.12;99478.59;10193648;23;20013;-73
2022/12/05 12:49:58;;;;;;;;;;;;;;;5.09;90.29;99480.28;10171508;23;19924;-73
2022/12/05 12:54:15;;;;;;;;;;;;;;;5.09;90.72;99473.44;10195139;23;20003;-74
2022/12/05 12:58:49;;;;;;;;;;;;;;;5.09;90.54;99470.00;10194724;23;19924;-73
2022/12/05 13:02:59;;;;;;;;;;;;;;;5.05;90.68;99453.63;10195153;23;19956;-74
2022/12/05 13:07:07;;;;;;;;;;;;;;;5.06;90.86;99459.66;10194819;23;19934;-74
2022/12/05 13:11:11;;;;;;;;;;;;;;;5.07;91.12;99462.25;10170990;23;19939;-74
2022/12/05 13:15:14;;;;;;;;;;;;;;;5.14;91.05;99461.50;10194216;23;19924;-74
2022/12/05 13:19:25;;;;;;;;;;;;;;;5.15;91.24;99458.09;10222487;23;19924;-74
2022/12/05 13:23:28;;;;;;;;;;;;;;;5.16;90.85;99470.13;10169488;23;20003;-74
2022/12/05 13:27:29;;;;;;;;;;;;;;;5.14;90.46;99458.94;10221220;23;19931;-74
2022/12/05 13:31:33;;;;;;;;;;;;;;;5.17;90.63;99460.69;10196597;23;19924;-74
2022/12/05 13:44:27;;;;;;;;;;;;;;;5.15;91.29;99470.09;10218257;23;19924;-74
2022/12/05 13:48:30;;;;;;;;;;;;;;;5.17;91.32;99473.56;10219734;23;19983;-74
2022/12/05 13:52:39;;;;;;;;;;;;;;;5.14;90.99;99476.09;10218019;23;19931;-74
2022/12/05 13:56:54;;;;;;;;;;;;;;;5.13;91.20;99476.94;10219344;23;19983;-74
2022/12/05 14:01:15;;;;;;;;;;;;;;;5.14;90.95;99470.94;10219113;23;19974;-74
2022/12/05 14:05:19;;;;;;;;;;;;;;;5.14;91.09;99476.94;10218500;23;19924;-73
2022/12/05 14:09:29;;;;;;;;;;;;;;;5.16;92.06;99482.13;10219543;23;19995;-74
2022/12/05 14:13:42;;;;;;;;;;;;;;;5.16;92.23;99482.13;10216990;23;20205;-74
2022/12/05 14:17:44;;;;;;;;;;;;;;;5.14;91.49;99483.81;10218381;23;19924;-74
2022/12/05 14:21:52;;;;;;;;;;;;;;;5.13;92.10;99479.50;10218566;23;19924;-74
2022/12/05 14:26:00;;;;;;;;;;;;;;;5.12;92.28;99483.78;10216920;23;19963;-74
2022/12/05 14:30:21;;;;;;;;;;;;;;;5.12;91.69;99496.66;10219198;23;19951;-74
2022/12/05 14:34:26;;;;;;;;;;;;;;;5.06;91.81;99486.25;10227054;23;19967;-74
2022/12/05 14:38:29;;;;;;;;;;;;;;;5.07;92.35;99492.25;10172871;23;20330;-73
2022/12/05 14:42:35;;;;;;;;;;;;;;;5.10;92.11;99484.59;10224028;23;20446;-74
2022/12/05 14:46:46;;;;;;;;;;;;;;;5.07;91.83;99494.84;10171109;23;19924;-74
2022/12/05 14:50:51;;;;;;;;;;;;;;;5.07;92.24;99487.97;10172357;23;19955;-73
2022/12/05 14:55:07;;;;;;;;;;;;;;;5.08;92.44;99494.00;10196806;23;20288;-74
2022/12/05 14:59:36;;;;;;;;;;;;;;;5.12;92.20;99493.22;10196024;23;20351;-74
2022/12/05 15:03:40;;;;;;;;;;;;;;;5.10;92.79;99488.03;10172337;23;20028;-74
2022/12/05 15:07:44;;;;;;;;;;;;;;;5.11;92.93;99486.31;10222818;23;20296;-74
2022/12/05 15:11:48;;;;;;;;;;;;;;;5.09;92.74;99488.00;10196773;23;19924;-73
2022/12/05 15:16:00;;;;;;;;;;;;;;;5.09;92.74;99496.59;10197948;23;19924;-74
2022/12/05 15:20:38;;;;;;;;;;;;;;;5.08;93.37;99491.41;10223092;23;19929;-74
2022/12/05 15:24:41;;;;;;;;;;;;;;;5.06;93.68;99483.69;10195865;23;20031;-74
2022/12/05 15:29:05;;;;;;;;;;;;;;;5.06;93.50;99491.41;10197110;23;19924;-74
2022/12/05 15:33:12;;;;;;;;;;;;;;;5.07;93.95;99502.56;10223025;23;20417;-74
2022/12/05 15:37:32;;;;;;;;;;;;;;;5.05;94.01;99499.09;10220692;23;19924;-74
2022/12/05 15:41:37;;;;;;;;;;;;;;;5.02;94.64;99499.88;10223399;23;20011;-74
2022/12/05 15:45:38;;;;;;;;;;;;;;;5.02;94.55;99506.72;10221693;23;19964;-74
2022/12/05 15:49:40;;;;;;;;;;;;;;;5.00;94.48;99511.84;10222626;23;19979;-74
2022/12/05 15:53:53;;;;;;;;;;;;;;;5.02;94.92;99514.44;10222256;23;19928;-74
2022/12/05 15:58:21;;;;;;;;;;;;;;;4.97;94.34;99514.34;10196398;23;19979;-74
2022/12/05 16:02:30;;;;;;;;;;;;;;;4.96;94.53;99522.06;10206508;23;19934;-74
2022/12/05 16:06:34;;;;;;;;;;;;;;;4.95;94.27;99521.19;10222133;23;19924;-73
2022/12/05 16:10:36;;;;;;;;;;;;;;;4.88;94.53;99521.91;10171431;23;20007;-73
2022/12/05 16:14:38;;;;;;;;;;;;;;;4.89;95.12;99523.66;10196136;23;19934;-74
2022/12/05 16:19:05;;;;;;;;;;;;;;;4.87;95.20;99524.44;10174752;23;20707;-74
2022/12/05 16:23:25;;;;;;;;;;;;;;;4.88;95.32;99528.75;10194847;23;20007;-74
2022/12/05 16:27:29;;;;;;;;;;;;;;;4.89;95.25;99533.06;10171492;23;20006;-74
2022/12/05 16:31:31;;;;;;;;;;;;;;;4.85;95.35;99537.28;10219821;23;19955;-73
2022/12/05 16:35:40;;;;;;;;;;;;;;;4.83;95.55;99532.09;10219577;23;20002;-74
2022/12/05 16:39:45;;;;;;;;;;;;;;;4.85;95.71;99530.44;10221749;23;19924;-74
2022/12/05 16:43:46;;;;;;;;;;;;;;;4.88;96.21;99532.19;10191891;23;20002;-74
2022/12/05 16:47:55;;;;;;;;;;;;;;;4.88;96.27;99541.63;10170231;23;20053;-74
2022/12/05 16:52:00;;;;;;;;;;;;;;;4.87;96.30;99539.88;10194209;23;20033;-74
2022/12/05 16:56:02;;;;;;;;;;;;;;;4.82;96.10;99542.34;10220751;23;19976;-74
2022/12/05 17:00:05;;;;;;;;;;;;;;;4.79;96.77;99540.56;10219582;23;19924;-75
2022/12/05 17:04:10;;;;;;;;;;;;;;;4.81;96.81;99543.19;10192454;23;20539;-74
2022/12/05 17:08:17;;;;;;;;;;;;;;;4.81;97.13;99550.91;10193811;23;20331;-74
2022/12/05 17:12:21;;;;;;;;;;;;;;;4.78;97.01;99549.13;10220832;23;19928;-74
2022/12/05 17:16:26;;;;;;;;;;;;;;;4.77;97.26;99551.69;10219338;23;19924;-74
2022/12/05 17:20:27;;;;;;;;;;;;;;;4.79;97.70;99557.72;10220635;23;19934;-74
2022/12/05 17:24:30;;;;;;;;;;;;;;;4.80;97.38;99552.59;10192219;23;19982;-74
2022/12/05 17:28:34;;;;;;;;;;;;;;;4.82;97.65;99557.78;10187741;23;19928;-74
2022/12/05 17:32:37;;;;;;;;;;;;;;;4.80;97.53;99547.47;10214675;23;19935;-74
2022/12/05 17:36:52;;;;;;;;;;;;;;;4.78;97.71;99554.28;10235247;23;19978;-74
2022/12/05 17:40:54;;;;;;;;;;;;;;;4.77;98.08;99556.81;10241216;23;20262;-74
2022/12/05 17:45:09;;;;;;;;;;;;;;;4.75;98.11;99561.06;10251298;23;19924;-73
2022/12/05 17:49:15;;;;;;;;;;;;;;;4.75;98.59;99568.78;10241802;23;20051;-74
2022/12/05 17:53:19;;;;;;;;;;;;;;;4.79;98.43;99575.72;10243483;23;19924;-74
2022/12/05 17:57:26;;;;;;;;;;;;;;;4.77;98.39;99567.97;10218781;23;19932;-74
2022/12/05 18:01:30;;;;;;;;;;;;;;;4.77;98.57;99573.13;10269289;23;19930;-74
2022/12/05 18:05:40;;;;;;;;;;;;;;;4.74;98.64;99579.91;10222141;23;19935;-73
2022/12/05 18:09:42;;;;;;;;;;;;;;;4.73;98.46;99580.75;10246431;23;19927;-74
2022/12/05 18:13:54;;;;;;;;;;;;;;;4.73;98.27;99583.31;10247166;23;19924;-74
2022/12/05 18:17:55;;;;;;;;;;;;;;;4.72;98.34;99576.44;10246709;23;20023;-74
2022/12/05 18:21:57;;;;;;;;;;;;;;;4.70;98.70;99576.41;10246842;23;19982;-73
2022/12/05 18:25:58;;;;;;;;;;;;;;;4.71;98.84;99590.13;10247015;23;19955;-74
2022/12/05 18:30:02;;;;;;;;;;;;;;;4.74;98.81;99585.06;10272824;23;20263;-74
2022/12/05 18:34:04;;;;;;;;;;;;;;;4.73;98.86;99588.47;10234030;23;19924;-74
2022/12/05 18:38:10;;;;;;;;;;;;;;;4.72;98.84;99597.88;10222095;23;19928;-73
2022/12/05 18:42:13;;;;;;;;;;;;;;;4.69;98.21;99596.94;10195201;23;19924;-74
2022/12/05 18:46:17;;;;;;;;;;;;;;;4.68;98.69;99602.94;10222351;23;19924;-74
2022/12/05 18:50:18;;;;;;;;;;;;;;;4.65;98.80;99607.97;10171957;23;19924;-73
2022/12/05 18:54:19;;;;;;;;;;;;;;;4.63;98.69;99613.09;10222947;23;19928;-74
2022/12/05 18:58:25;;;;;;;;;;;;;;;4.64;98.33;99611.38;10218937;23;20006;-74
2022/12/05 19:02:27;;;;;;;;;;;;;;;4.57;98.51;99604.38;10195290;23;20002;-73
2022/12/05 19:06:30;;;;;;;;;;;;;;;4.58;98.74;99613.81;10195217;23;19931;-74
2022/12/05 19:10:35;;;;;;;;;;;;;;;4.57;98.67;99618.09;10221207;23;19928;-74
2022/12/05 19:14:38;;;;;;;;;;;;;;;4.53;98.46;99614.59;10193466;23;20270;-74
2022/12/05 19:18:57;;;;;;;;;;;;;;;4.51;98.02;99617.97;10197799;23;20584;-74
2022/12/05 19:22:59;;;;;;;;;;;;;;;4.50;98.11;99616.22;10222485;23;19928;-74
2022/12/05 19:27:01;;;;;;;;;;;;;;;4.50;98.27;99618.81;10197366;23;19924;-74
2022/12/05 19:31:09;;;;;;;;;;;;;;;4.50;98.29;99621.38;10223134;23;19924;-74
2022/12/05 19:35:11;;;;;;;;;;;;;;;4.48;98.10;99628.16;10171438;23;20011;-74
2022/12/05 19:39:14;;;;;;;;;;;;;;;4.47;98.07;99636.69;10219700;23;20031;-74
2022/12/05 19:43:16;;;;;;;;;;;;;;;4.45;98.16;99635.81;10195915;23;20322;-74
2022/12/05 19:47:26;;;;;;;;;;;;;;;4.43;98.03;99633.19;10219049;23;20698;-73
2022/12/05 19:51:29;;;;;;;;;;;;;;;4.43;98.10;99637.47;10225540;23;19999;-74
2022/12/05 19:55:30;;;;;;;;;;;;;;;4.44;98.48;99639.22;10223195;23;19940;-74
2022/12/05 19:59:32;;;;;;;;;;;;;;;4.44;97.93;99628.94;10226051;23;19924;-74
2022/12/05 20:03:33;;;;;;;;;;;;;;;4.42;98.19;99626.31;10223876;23;19989;-74
2022/12/05 20:07:34;;;;;;;;;;;;;;;4.38;98.12;99621.94;10198270;23;20564;-75
2022/12/05 20:11:40;;;;;;;;;;;;;;;4.38;98.38;99628.78;10199151;23;19924;-74
2022/12/05 20:15:41;;;;;;;;;;;;;;;4.37;98.19;99638.19;10224027;23;19966;-74
2022/12/05 20:19:42;;;;;;;;;;;;;;;4.34;97.72;99624.41;10224164;23;19924;-74
2022/12/05 20:23:44;;;;;;;;;;;;;;;4.35;98.34;99634.72;10223966;23;20558;-74
2022/12/05 20:27:45;;;;;;;;;;;;;;;4.30;97.97;99620.88;10222703;23;19932;-74
2022/12/05 20:31:48;;;;;;;;;;;;;;;4.26;97.97;99626.78;10224100;23;19925;-74
2022/12/05 20:35:50;;;;;;;;;;;;;;;4.23;97.92;99631.84;10254865;23;20435;-74
2022/12/05 20:39:51;;;;;;;;;;;;;;;4.23;98.43;99637.00;10248649;23;20006;-74
2022/12/05 20:43:57;;;;;;;;;;;;;;;4.21;98.13;99638.66;10245308;23;20466;-74
2022/12/05 20:47:58;;;;;;;;;;;;;;;4.21;98.33;99642.09;10247502;23;19987;-74
2022/12/05 20:51:59;;;;;;;;;;;;;;;4.19;98.36;99636.06;10247564;23;20006;-73
2022/12/05 20:56:02;;;;;;;;;;;;;;;4.18;98.00;99636.88;10243791;23;20281;-73
2022/12/05 21:00:04;;;;;;;;;;;;;;;4.16;98.00;99642.81;10243929;23;20334;-74
2022/12/05 21:04:06;;;;;;;;;;;;;;;4.16;98.01;99645.38;10244823;23;20002;-74
2022/12/05 21:08:07;;;;;;;;;;;;;;;4.12;97.62;99639.28;10269091;23;19999;-74
2022/12/05 21:12:09;;;;;;;;;;;;;;;4.11;97.87;99640.09;10244701;23;19935;-74
2022/12/05 21:16:12;;;;;;;;;;;;;;;4.09;97.46;99641.78;10270310;23;20493;-74
2022/12/05 21:20:14;;;;;;;;;;;;;;;4.07;97.82;99640.88;10271013;23;19924;-74
2022/12/05 21:24:16;;;;;;;;;;;;;;;4.03;97.46;99633.94;10245987;23;19958;-74